Terminal Aerodrome Forecast
Issued by NWS La Crosse, WI

Home | Current Version | Previous Version | Text Only | Print | Product List | Glossary On
Versions: 1 2 3 4 5 6 7 8 9 10 11 12 13 14 15 16 17 18 19 20 21 22 23 24 25 26 27 28 29 30
000
FTUS43 KARX 242104 AAB
TAFLSE
TAF AMD
KLSE 242104Z 2421/2518 11010KT 6SM -RA BR OVC015
     FM242300 12008KT 5SM BR VCSH OVC012
     FM250400 13005KT 3SM BR VCSH OVC010
     FM251400 21010KT 6SM -SHRA OVC015=

USA.gov is the U.S. government's official web portal to all federal, state and local government web resources and services.